Time;durP1;ratioP1;P1;durP2;ratioP2;P2;SDS_P1;SDS_P2;PMS_P1;PMS_P2;Temp;Humidity;BMP_temperature;BMP_pressure;BME280_temperature;BME280_humidity;BME280_pressure;Samples;Min_cycle;Max_cycle;Signal;HPM_P1;HPM_P2
2023/03/01 00:01:54;;;;;;;13.05;6.08;;;;;;;-1.76;69.33;101105.76;1668272;84;21070;-65
2023/03/01 00:04:27;;;;;;;12.00;5.53;;;;;;;-1.77;69.41;101106.72;1668418;86;21516;-64
2023/03/01 00:06:57;;;;;;;16.42;6.10;;;;;;;-1.75;69.49;101108.83;1648078;86;21109;-63
2023/03/01 00:09:26;;;;;;;10.85;5.45;;;;;;;-1.75;69.60;101111.51;1668386;86;21014;-65
2023/03/01 00:11:56;;;;;;;11.43;6.08;;;;;;;-1.79;69.64;101100.59;1668378;85;21026;-64
2023/03/01 00:14:26;;;;;;;9.35;4.92;;;;;;;-1.78;69.79;101103.66;1668223;84;21054;-63
2023/03/01 00:16:55;;;;;;;9.65;5.30;;;;;;;-1.77;69.77;101096.45;1668539;86;21067;-66
2023/03/01 00:19:24;;;;;;;10.78;5.53;;;;;;;-1.79;69.84;101075.07;1668152;86;21062;-65
2023/03/01 00:21:53;;;;;;;15.25;5.87;;;;;;;-1.79;70.01;101079.09;1668264;86;21103;-64
2023/03/01 00:24:24;;;;;;;13.85;5.92;;;;;;;-1.78;70.11;101075.93;1668262;84;21022;-63
2023/03/01 00:26:56;;;;;;;11.90;5.08;;;;;;;-1.78;70.11;101063.36;1668207;86;21070;-67
2023/03/01 00:29:25;;;;;;;14.35;6.62;;;;;;;-1.81;70.16;101046.11;1668284;86;21075;-63
2023/03/01 00:31:55;;;;;;;11.88;6.03;;;;;;;-1.81;70.26;101038.53;1668073;86;21795;-65
2023/03/01 00:34:24;;;;;;;12.75;6.17;;;;;;;-1.79;70.25;101046.00;1668361;86;21054;-63
2023/03/01 00:36:53;;;;;;;16.15;6.40;;;;;;;-1.76;70.25;101034.57;1668434;84;21054;-63
2023/03/01 00:39:22;;;;;;;12.53;6.30;;;;;;;-1.72;70.27;101035.23;1668989;84;21185;-64
2023/03/01 00:41:51;;;;;;;14.40;5.47;;;;;;;-1.69;70.26;101025.13;1656766;86;21043;-64
2023/03/01 00:44:19;;;;;;;13.20;5.78;;;;;;;-1.66;70.13;101033.47;1670781;85;21070;-64
2023/03/01 00:46:48;;;;;;;14.28;6.90;;;;;;;-1.65;70.07;101040.08;1656672;86;21110;-64
2023/03/01 00:49:18;;;;;;;14.13;5.80;;;;;;;-1.63;70.12;101030.09;1670791;86;21569;-64
2023/03/01 00:51:48;;;;;;;13.88;6.20;;;;;;;-1.57;70.10;101032.84;1656563;86;21107;-64
2023/03/01 00:54:17;;;;;;;13.20;6.03;;;;;;;-1.53;69.97;101032.15;1670964;86;21050;-64
2023/03/01 00:56:46;;;;;;;13.58;6.03;;;;;;;-1.54;69.97;101025.05;1656357;86;21542;-63
2023/03/01 00:59:15;;;;;;;11.70;5.85;;;;;;;-1.54;69.92;101026.39;1670921;86;21053;-64
2023/03/01 01:01:44;;;;;;;12.23;6.62;;;;;;;-1.53;69.84;101019.58;1656766;86;21111;-65
2023/03/01 01:04:14;;;;;;;14.43;5.92;;;;;;;-1.52;69.82;101018.61;1670981;86;21137;-63
2023/03/01 01:06:45;;;;;;;14.53;6.80;;;;;;;-1.51;69.82;101009.58;1670696;85;21094;-65
2023/03/01 01:09:17;;;;;;;12.60;6.12;;;;;;;-1.50;69.79;101013.98;1656387;86;21047;-66
2023/03/01 01:11:48;;;;;;;14.33;6.00;;;;;;;-1.48;69.74;101001.79;1670791;85;21458;-65
2023/03/01 01:14:18;;;;;;;13.53;6.50;;;;;;;-1.47;69.67;101002.17;1670924;85;21138;-65
2023/03/01 01:16:48;;;;;;;14.00;6.22;;;;;;;-1.46;69.64;100995.83;1670782;85;21142;-65
2023/03/01 01:19:18;;;;;;;12.58;5.85;;;;;;;-1.45;69.58;100988.14;1656456;86;21533;-63
2023/03/01 01:21:48;;;;;;;11.43;5.97;;;;;;;-1.46;69.53;100983.73;1670992;86;21094;-64
2023/03/01 01:24:17;;;;;;;15.72;6.47;;;;;;;-1.47;69.45;100983.36;1656465;86;21099;-64
2023/03/01 01:26:47;;;;;;;13.10;6.30;;;;;;;-1.49;69.48;100973.20;1670503;86;21132;-65
2023/03/01 01:29:16;;;;;;;10.82;5.97;;;;;;;-1.50;69.51;100969.65;1656138;86;21075;-65
2023/03/01 01:31:46;;;;;;;12.00;5.85;;;;;;;-1.49;69.38;100974.05;1670838;86;21098;-65
2023/03/01 01:34:17;;;;;;;12.23;6.22;;;;;;;-1.49;69.43;100983.46;1656478;86;21217;-66
2023/03/01 01:36:50;;;;;;;14.30;5.90;;;;;;;-1.50;69.46;100983.09;1670693;86;21082;-65
2023/03/01 01:39:19;;;;;;;13.08;6.05;;;;;;;-1.51;69.42;100980.02;1658393;86;21058;-65
2023/03/01 01:41:48;;;;;;;15.10;6.37;;;;;;;-1.49;69.42;100980.78;1665560;85;21066;-65
2023/03/01 01:44:23;;;;;;;13.83;6.08;;;;;;;-1.50;69.45;100972.34;1665410;86;21120;-64
2023/03/01 01:47:14;;;;;;;14.20;6.17;;;;;;;-1.48;69.45;100960.14;1665585;85;21419;-64
2023/03/01 01:49:53;;;;;;;12.93;6.33;;;;;;;-1.50;69.38;100962.07;1665331;86;21026;-64
2023/03/01 01:52:29;;;;;;;11.10;5.97;;;;;;;-1.52;69.45;100959.97;1665893;86;21066;-66
2023/03/01 01:55:09;;;;;;;9.88;4.70;;;;;;;-1.49;69.52;100949.88;1665922;85;21090;-66
2023/03/01 01:57:45;;;;;;;12.00;5.55;;;;;;;-1.49;69.43;100946.33;1665790;86;21070;-66
2023/03/01 02:00:20;;;;;;;;;;;;;;;-1.48;69.35;100937.30;1668170;84;21050;-64
2023/03/01 02:02:54;;;;;;;13.03;6.17;;;;;;;-1.49;69.39;100930.20;1665390;85;20209;-64
2023/03/01 02:05:55;;;;;;;14.13;6.70;;;;;;;-1.51;69.43;100926.28;1665442;86;21046;-64
2023/03/01 02:08:30;;;;;;;10.30;6.12;;;;;;;-1.48;69.38;100927.89;1665687;86;21486;-64
2023/03/01 02:11:01;;;;;;;12.90;5.95;;;;;;;-1.47;69.37;100922.89;1665576;85;21451;-64
2023/03/01 02:13:32;;;;;;;11.38;5.25;;;;;;;-1.46;69.32;100920.58;1665531;86;21129;-64
2023/03/01 02:16:07;;;;;;;11.33;5.55;;;;;;;-1.45;69.21;100912.89;1665770;86;21050;-64
2023/03/01 02:18:38;;;;;;;11.38;5.22;;;;;;;-1.47;69.15;100915.69;1665846;86;21054;-64
2023/03/01 02:21:46;;;;;;;11.30;5.62;;;;;;;-1.46;69.20;100912.52;1665546;86;21078;-63
2023/03/01 02:24:52;;;;;;;13.28;6.03;;;;;;;-1.46;69.17;100913.86;1665678;86;21455;-68
2023/03/01 02:27:24;;;;;;;14.87;5.87;;;;;;;-1.50;69.25;100902.95;1665522;85;21146;-64
2023/03/01 02:29:54;;;;;;;15.00;6.35;;;;;;;-1.52;69.35;100899.52;1665520;86;21047;-64
2023/03/01 02:32:25;;;;;;;14.03;6.42;;;;;;;-1.49;69.29;100913.59;1665626;86;21498;-63
2023/03/01 02:34:55;;;;;;;12.93;6.05;;;;;;;-1.48;69.30;100901.02;1665798;86;21049;-64
2023/03/01 02:37:24;;;;;;;12.05;5.75;;;;;;;-1.46;69.29;100899.08;1665705;85;21091;-64
2023/03/01 02:39:59;;;;;;;13.48;6.40;;;;;;;-1.45;69.28;100895.42;1662412;86;21082;-67
2023/03/01 02:42:35;;;;;;;13.53;6.33;;;;;;;-1.44;69.27;100886.39;1670568;85;21015;-65
2023/03/01 02:45:05;;;;;;;11.93;6.28;;;;;;;-1.44;69.27;100881.02;1656273;86;21034;-64
2023/03/01 02:47:34;;;;;;;12.95;6.10;;;;;;;-1.46;69.31;100888.33;1670723;85;21023;-64
2023/03/01 02:50:23;;;;;;;13.55;5.92;;;;;;;-1.48;69.35;100892.95;1656665;86;21154;-65
2023/03/01 02:53:10;;;;;;;12.45;6.33;;;;;;;-1.50;69.39;100884.14;1636257;86;21099;-63
2023/03/01 02:55:39;;;;;;;14.15;6.67;;;;;;;-1.51;69.52;100875.70;1670970;85;21097;-65
2023/03/01 02:58:09;;;;;;;11.97;5.35;;;;;;;-1.51;69.55;100873.88;1656607;86;21534;-64
2023/03/01 03:00:49;;;;;;;15.53;6.78;;;;;;;-1.50;69.58;100867.54;1640171;86;21042;-64
2023/03/01 03:03:17;;;;;;;15.98;6.22;;;;;;;-1.50;69.60;100863.99;1669943;86;21050;-64
2023/03/01 03:05:48;;;;;;;13.10;6.55;;;;;;;-1.57;69.59;100850.13;1670042;85;21086;-65
2023/03/01 03:08:23;;;;;;;14.13;6.25;;;;;;;-1.61;69.77;100850.84;1670509;86;21038;-67
2023/03/01 03:10:48;;;;;;;12.75;6.47;;;;;;;-1.62;69.86;100848.27;1670324;85;21114;-64
2023/03/01 03:13:18;;;;;;;15.95;6.92;;;;;;;-1.62;69.98;100838.86;1656554;86;21054;-64
2023/03/01 03:15:48;;;;;;;11.55;6.03;;;;;;;-1.63;70.02;100842.52;1670509;85;21062;-66
2023/03/01 03:18:18;;;;;;;11.37;6.00;;;;;;;-1.65;70.13;100845.79;1656516;86;21083;-65
2023/03/01 03:20:52;;;;;;;13.28;6.70;;;;;;;-1.67;70.33;100840.53;1644205;86;21022;-65
2023/03/01 03:23:20;;;;;;;15.15;6.25;;;;;;;-1.72;70.37;100833.28;1656556;86;21086;-64
2023/03/01 03:25:50;;;;;;;14.58;6.70;;;;;;;-1.72;70.54;100840.48;1670725;86;21466;-64
2023/03/01 03:28:19;;;;;;;13.83;6.53;;;;;;;-1.72;70.62;100839.99;1670370;85;21497;-64
2023/03/01 03:30:49;;;;;;;14.05;6.55;;;;;;;-1.71;70.61;100847.08;1670550;85;21082;-63
2023/03/01 03:33:20;;;;;;;13.15;6.17;;;;;;;-1.71;70.66;100851.11;1656453;86;21039;-65
2023/03/01 03:35:50;;;;;;;13.68;6.58;;;;;;;-1.69;70.68;100846.48;1670645;86;21532;-65
2023/03/01 03:38:21;;;;;;;12.65;6.00;;;;;;;-1.70;70.67;100843.91;1656495;86;21051;-66
2023/03/01 03:41:06;;;;;;;11.93;6.10;;;;;;;-1.71;70.71;100847.08;1671807;85;21517;-64
2023/03/01 03:43:37;;;;;;;17.62;6.83;;;;;;;-1.74;70.74;100838.38;1673037;86;21503;-64
2023/03/01 03:46:06;;;;;;;16.45;7.05;;;;;;;-1.75;70.92;100840.69;1660788;86;21096;-63
2023/03/01 03:48:37;;;;;;;16.07;7.22;;;;;;;-1.73;71.05;100836.08;1673209;84;21042;-65
2023/03/01 03:51:06;;;;;;;16.02;7.40;;;;;;;-1.73;71.07;100827.53;1660697;85;21038;-64
2023/03/01 03:53:36;;;;;;;16.80;7.58;;;;;;;-1.75;71.13;100836.19;1672952;86;21446;-65
2023/03/01 03:56:06;;;;;;;16.90;7.33;;;;;;;-1.72;71.24;100844.02;1660767;85;21083;-63
2023/03/01 03:58:36;;;;;;;16.57;7.70;;;;;;;-1.70;71.20;100839.40;1660902;85;21055;-64
2023/03/01 04:01:05;;;;;;;15.00;6.87;;;;;;;-1.71;71.19;100830.11;1672562;86;21494;-63
2023/03/01 04:03:35;;;;;;;14.28;6.60;;;;;;;-1.69;71.26;100818.77;1660717;86;21118;-64
2023/03/01 04:06:05;;;;;;;12.35;5.85;;;;;;;-1.70;71.27;100824.63;1660838;86;21516;-65
2023/03/01 04:08:36;;;;;;;13.62;6.37;;;;;;;-1.68;71.34;100825.38;1660841;86;21483;-63
2023/03/01 04:13:57;;;;;;;11.85;5.97;;;;;;;-1.65;71.37;100823.81;1660794;85;21082;-64
2023/03/01 04:16:27;;;;;;;14.13;6.53;;;;;;;-1.65;71.35;100822.47;1660788;86;21150;-66
2023/03/01 04:18:59;;;;;;;16.35;7.25;;;;;;;-1.63;71.40;100819.67;1673111;86;21038;-63
2023/03/01 04:21:27;;;;;;;14.40;6.30;;;;;;;-1.61;71.43;100822.63;1661086;86;21043;-63
2023/03/01 04:23:56;;;;;;;13.35;6.28;;;;;;;-1.63;71.50;100816.98;1672632;85;21473;-63
2023/03/01 04:26:27;;;;;;;13.53;5.65;;;;;;;-1.65;71.51;100813.55;1660563;86;21455;-64
2023/03/01 04:28:57;;;;;;;14.58;5.85;;;;;;;-1.67;71.74;100815.48;1660937;86;21039;-67
2023/03/01 04:31:28;;;;;;;15.43;6.55;;;;;;;-1.70;71.81;100819.25;1672811;86;21050;-64
2023/03/01 04:33:59;;;;;;;14.43;6.67;;;;;;;-1.68;71.93;100821.83;1660779;86;21050;-65
2023/03/01 04:36:29;;;;;;;14.03;6.50;;;;;;;-1.66;71.96;100812.70;1672736;86;21126;-64
2023/03/01 04:38:59;;;;;;;13.65;5.80;;;;;;;-1.68;72.08;100813.77;1660889;85;21083;-67
2023/03/01 04:41:28;;;;;;;11.78;5.72;;;;;;;-1.66;72.14;100818.55;1660741;86;21185;-64
2023/03/01 04:43:59;;;;;;;15.08;6.50;;;;;;;-1.66;72.19;100819.41;1660728;85;21110;-64
2023/03/01 04:46:28;;;;;;;15.63;7.30;;;;;;;-1.66;72.21;100834.19;1660747;85;21090;-65
2023/03/01 04:48:58;;;;;;;18.98;7.58;;;;;;;-1.62;72.20;100830.80;1672748;86;21049;-63
2023/03/01 04:51:28;;;;;;;12.90;6.53;;;;;;;-1.61;72.20;100832.03;1660930;85;21094;-65
2023/03/01 04:54:00;;;;;;;14.23;6.87;;;;;;;-1.58;72.19;100847.55;1672444;84;21139;-64
2023/03/01 04:56:29;;;;;;;13.25;6.97;;;;;;;-1.56;72.25;100846.96;1660394;86;21576;-65
2023/03/01 04:59:00;;;;;;;17.05;7.65;;;;;;;-1.54;72.29;100836.97;1660811;86;21098;-65
2023/03/01 05:01:29;;;;;;;16.05;7.20;;;;;;;-1.54;72.36;100835.14;1672556;84;21078;-64
2023/03/01 05:04:02;;;;;;;18.05;7.25;;;;;;;-1.55;72.33;100824.50;1673010;84;21446;-64
2023/03/01 05:06:29;;;;;;;15.53;6.85;;;;;;;-1.57;72.38;100825.95;1673055;86;21093;-64
2023/03/01 05:08:58;;;;;;;18.80;7.30;;;;;;;-1.60;72.51;100826.17;1672806;84;21054;-65
2023/03/01 05:11:33;;;;;;;13.48;6.28;;;;;;;-1.60;72.73;100828.86;1660484;85;21082;-65
2023/03/01 05:13:59;;;;;;;14.13;6.15;;;;;;;-1.58;73.00;100824.72;1660715;86;21055;-67
2023/03/01 05:16:28;;;;;;;14.53;7.20;;;;;;;-1.58;73.17;100837.67;1672380;86;21105;-65
2023/03/01 05:18:59;;;;;;;16.57;6.10;;;;;;;-1.58;73.31;100845.73;1660849;85;21114;-63
2023/03/01 05:21:29;;;;;;;13.75;6.45;;;;;;;-1.54;73.49;100857.98;1672393;84;21065;-64
2023/03/01 05:23:59;;;;;;;17.60;7.15;;;;;;;-1.50;73.78;100863.99;1660757;86;21074;-64
2023/03/01 05:26:31;;;;;;;14.83;6.87;;;;;;;-1.49;73.84;100855.82;1672842;84;21098;-66
2023/03/01 05:29:00;;;;;;;14.40;6.92;;;;;;;-1.45;73.93;100853.77;1660482;85;21066;-65
2023/03/01 05:31:30;;;;;;;17.85;7.95;;;;;;;-1.42;74.03;100842.80;1673027;85;21057;-67
2023/03/01 05:33:59;;;;;;;14.95;6.80;;;;;;;-1.44;74.10;100833.99;1672731;86;21066;-65
2023/03/01 05:36:32;;;;;;;14.53;6.90;;;;;;;-1.43;74.26;100823.62;1661125;86;21475;-65
2023/03/01 05:39:01;;;;;;;14.87;6.90;;;;;;;-1.41;74.44;100833.77;1661034;86;21094;-63
2023/03/01 05:41:31;;;;;;;13.93;7.12;;;;;;;-1.41;74.54;100831.94;1672142;84;21480;-64
2023/03/01 05:44:04;;;;;;;12.80;6.50;;;;;;;-1.37;74.62;100832.58;1672861;85;21113;-65
2023/03/01 05:46:33;;;;;;;16.05;7.00;;;;;;;-1.35;74.61;100826.13;1673114;85;21498;-65
2023/03/01 05:49:02;;;;;;;15.30;6.65;;;;;;;-1.33;74.69;100819.29;1673082;85;21097;-65
2023/03/01 05:51:32;;;;;;;14.60;7.00;;;;;;;-1.29;74.74;100826.20;1672942;85;21078;-65
2023/03/01 05:54:01;;;;;;;16.05;6.47;;;;;;;-1.27;74.76;100828.28;1673083;86;21086;-66
2023/03/01 05:56:30;;;;;;;16.95;6.92;;;;;;;-1.25;74.78;100843.81;1672841;85;21086;-65
2023/03/01 05:59:01;;;;;;;14.70;7.10;;;;;;;-1.20;74.82;100838.11;1646701;86;21015;-65
2023/03/01 06:01:33;;;;;;;14.75;6.53;;;;;;;-1.17;74.78;100840.09;1672760;84;21054;-65
2023/03/01 06:04:04;;;;;;;15.38;6.97;;;;;;;-1.13;74.77;100830.83;1660813;86;21019;-65
2023/03/01 06:06:37;;;;;;;17.67;6.85;;;;;;;-1.08;74.66;100831.34;1660593;85;21070;-66
2023/03/01 06:09:09;;;;;;;11.85;5.78;;;;;;;-1.05;74.56;100832.95;1660619;86;21475;-65
2023/03/01 06:11:41;;;;;;;14.68;6.60;;;;;;;-1.03;74.52;100829.17;1660726;86;21040;-67
2023/03/01 06:14:14;;;;;;;19.12;7.55;;;;;;;-1.00;74.36;100838.84;1672841;86;21061;-65
2023/03/01 06:16:41;;;;;;;15.13;7.17;;;;;;;-0.98;74.21;100844.48;1672851;85;21070;-64
2023/03/01 06:19:11;;;;;;;14.75;6.58;;;;;;;-0.96;74.12;100846.58;1646165;84;21057;-65
2023/03/01 06:21:39;;;;;;;18.07;7.53;;;;;;;-0.94;73.99;100846.46;1672543;86;21026;-65
2023/03/01 06:24:09;;;;;;;16.45;7.28;;;;;;;-0.95;73.92;100847.44;1672948;85;21089;-64
2023/03/01 06:26:38;;;;;;;17.50;8.20;;;;;;;-0.92;74.01;100854.41;1672729;86;21105;-64
2023/03/01 06:29:08;;;;;;;20.75;8.65;;;;;;;-0.86;74.06;100846.75;1672776;84;21034;-66
2023/03/01 06:31:39;;;;;;;22.17;7.72;;;;;;;-0.80;73.92;100860.23;1660667;85;21074;-67
2023/03/01 06:34:08;;;;;;;20.10;7.78;;;;;;;-0.77;73.77;100866.73;1672719;84;21477;-66
2023/03/01 06:36:37;;;;;;;19.23;8.23;;;;;;;-0.73;73.69;100866.88;1660562;86;21482;-66
2023/03/01 06:39:09;;;;;;;27.22;9.55;;;;;;;-0.68;73.72;100868.73;1660677;85;21047;-67
2023/03/01 06:41:39;;;;;;;21.12;7.75;;;;;;;-0.63;73.63;100865.25;1670462;85;21098;-65
2023/03/01 06:44:08;;;;;;;16.45;7.87;;;;;;;-0.57;73.51;100856.72;1667989;84;21039;-66
2023/03/01 06:46:40;;;;;;;21.50;8.58;;;;;;;-0.54;73.46;100857.83;1668559;84;21466;-64
2023/03/01 06:49:09;;;;;;;18.25;8.65;;;;;;;-0.48;73.47;100853.81;1668163;84;21082;-65
2023/03/01 06:51:39;;;;;;;18.70;8.30;;;;;;;-0.42;73.30;100859.59;1668206;84;21540;-65
2023/03/01 06:54:10;;;;;;;23.07;7.70;;;;;;;-0.39;73.15;100862.05;1668376;84;21102;-64
2023/03/01 06:56:40;;;;;;;18.12;7.58;;;;;;;-0.36;73.11;100856.92;1667889;84;21560;-64
2023/03/01 06:59:09;;;;;;;18.27;7.95;;;;;;;-0.35;72.94;100856.80;1639113;87;21212;-64
2023/03/01 07:01:40;;;;;;;18.65;8.03;;;;;;;-0.36;72.97;100859.12;1588241;89;21099;-64
2023/03/01 07:04:09;;;;;;;16.25;7.97;;;;;;;-0.35;73.13;100866.72;1590320;90;21205;-65
2023/03/01 07:06:38;;;;;;;18.23;7.95;;;;;;;-0.33;73.18;100861.59;1590707;90;21079;-70
2023/03/01 07:09:08;;;;;;;15.25;7.37;;;;;;;-0.30;73.32;100867.71;1590642;88;21537;-66
2023/03/01 07:11:38;;;;;;;15.50;7.72;;;;;;;-0.28;73.50;100860.37;1590758;88;21578;-65
2023/03/01 07:14:07;;;;;;;17.73;8.20;;;;;;;-0.24;74.20;100865.90;1590847;90;21558;-64
2023/03/01 07:16:36;;;;;;;16.17;7.33;;;;;;;-0.20;74.29;100864.69;1591017;88;21079;-65
2023/03/01 07:19:06;;;;;;;18.23;8.65;;;;;;;-0.15;74.90;100858.46;1605515;86;21552;-64
2023/03/01 07:21:40;;;;;;;19.23;9.03;;;;;;;-0.12;75.17;100869.86;1638846;86;21135;-65
2023/03/01 07:24:10;;;;;;;18.25;8.65;;;;;;;-0.05;75.48;100859.47;1663466;86;21544;-63
2023/03/01 07:26:39;;;;;;;17.52;7.95;;;;;;;-0.02;75.57;100869.52;1663844;85;21050;-65
2023/03/01 07:29:09;;;;;;;21.23;8.53;;;;;;;0.03;75.71;100848.98;1663514;85;21022;-64
2023/03/01 07:31:38;;;;;;;15.05;7.90;;;;;;;0.07;75.78;100857.69;1663459;85;21011;-65
2023/03/01 07:34:09;;;;;;;17.23;7.70;;;;;;;0.12;75.94;100852.31;1663473;86;21070;-67
2023/03/01 07:36:39;;;;;;;17.95;7.92;;;;;;;0.15;75.80;100857.46;1663711;85;21117;-65
2023/03/01 07:39:10;;;;;;;18.10;8.23;;;;;;;0.19;75.57;100855.38;1665834;86;21513;-64
2023/03/01 07:41:39;;;;;;;22.58;8.45;;;;;;;0.23;75.42;100848.78;1663661;85;21662;-66
2023/03/01 07:44:09;;;;;;;26.25;9.43;;;;;;;0.29;75.41;100857.73;1673053;84;21046;-64
2023/03/01 07:46:38;;;;;;;17.30;8.05;;;;;;;0.35;75.23;100842.42;1673006;84;21090;-65
2023/03/01 07:49:07;;;;;;;21.02;8.63;;;;;;;0.42;75.07;100849.53;1660996;85;21078;-65
2023/03/01 07:51:37;;;;;;;18.77;8.60;;;;;;;0.46;74.91;100856.39;1660846;85;21548;-64
2023/03/01 07:54:08;;;;;;;16.62;7.72;;;;;;;0.49;74.78;100849.41;1660781;86;21548;-65
2023/03/01 07:56:38;;;;;;;16.60;8.23;;;;;;;0.50;74.28;100848.42;1672637;86;21493;-65
2023/03/01 07:59:08;;;;;;;17.90;7.97;;;;;;;0.49;74.28;100848.92;1672727;84;21054;-63
2023/03/01 08:01:37;;;;;;;19.15;8.75;;;;;;;0.49;74.33;100846.22;1673169;85;21082;-68
2023/03/01 08:04:08;;;;;;;19.35;8.55;;;;;;;0.55;74.36;100841.69;1673231;85;21508;-65
2023/03/01 08:06:38;;;;;;;19.30;8.10;;;;;;;0.60;74.28;100848.06;1660831;86;21055;-64
2023/03/01 08:09:08;;;;;;;21.93;9.03;;;;;;;0.63;74.13;100843.77;1672872;86;21107;-64
2023/03/01 08:11:41;;;;;;;21.90;8.88;;;;;;;0.69;74.08;100846.00;1672737;84;21093;-65
2023/03/01 08:14:11;;;;;;;20.35;9.18;;;;;;;0.76;74.14;100845.02;1604543;88;21044;-66
2023/03/01 08:16:40;;;;;;;19.05;9.33;;;;;;;0.82;73.91;100839.12;1604930;88;21081;-65
2023/03/01 08:19:11;;;;;;;17.25;8.68;;;;;;;0.86;73.84;100837.89;1604701;89;21059;-62
2023/03/01 08:21:40;;;;;;;27.22;9.75;;;;;;;0.89;73.67;100833.11;1604632;88;21107;-66
2023/03/01 08:24:11;;;;;;;21.68;8.40;;;;;;;0.92;73.57;100845.00;1604654;88;21040;-66
2023/03/01 08:26:40;;;;;;;22.42;8.90;;;;;;;0.93;73.28;100837.77;1604653;88;21076;-66
2023/03/01 08:29:11;;;;;;;34.78;11.78;;;;;;;0.92;73.36;100839.60;1604661;89;21116;-67
2023/03/01 08:31:41;;;;;;;22.65;10.32;;;;;;;0.97;73.47;100835.18;1617071;86;21134;-65
2023/03/01 08:34:13;;;;;;;19.57;9.38;;;;;;;1.02;73.38;100837.01;1660791;86;21043;-65
2023/03/01 08:36:45;;;;;;;24.02;10.32;;;;;;;1.06;73.31;100835.77;1660814;85;21130;-63
2023/03/01 08:39:16;;;;;;;19.60;9.05;;;;;;;1.10;73.25;100830.98;1672789;84;21102;-67
2023/03/01 08:41:46;;;;;;;24.20;9.93;;;;;;;1.14;73.05;100827.91;1659510;84;21050;-65
2023/03/01 08:44:17;;;;;;;24.52;9.70;;;;;;;1.17;73.05;100826.79;1656178;86;21083;-65
2023/03/01 08:46:46;;;;;;;25.60;10.32;;;;;;;1.23;73.06;100820.39;1643833;86;21103;-65
2023/03/01 08:49:17;;;;;;;23.77;11.35;;;;;;;1.34;72.81;100832.17;1642868;85;21532;-66
2023/03/01 08:51:47;;;;;;;21.42;11.30;;;;;;;1.40;72.77;100827.11;1657752;86;21106;-67
2023/03/01 08:54:19;;;;;;;30.52;10.25;;;;;;;1.49;72.67;100835.78;1669789;85;21056;-67
2023/03/01 08:56:49;;;;;;;18.75;9.00;;;;;;;1.56;72.11;100843.73;1668746;86;21785;-66
2023/03/01 08:59:20;;;;;;;17.50;8.55;;;;;;;1.60;71.89;100832.19;1656089;86;21547;-65
2023/03/01 09:01:49;;;;;;;27.48;10.25;;;;;;;1.60;71.72;100838.94;1670683;86;21117;-65
2023/03/01 09:04:18;;;;;;;23.07;10.10;;;;;;;1.60;71.70;100834.88;1670665;86;21057;-65
2023/03/01 09:06:49;;;;;;;21.90;10.03;;;;;;;1.64;71.86;100837.69;1644353;86;21026;-64
2023/03/01 09:09:18;;;;;;;28.55;8.88;;;;;;;1.70;71.74;100836.31;1670521;86;21014;-64
2023/03/01 09:11:47;;;;;;;21.02;9.65;;;;;;;1.75;71.43;100835.43;1656152;86;21119;-64
2023/03/01 09:14:17;;;;;;;17.73;8.60;;;;;;;1.77;71.32;100832.10;1584839;90;21130;-65
2023/03/01 09:16:47;;;;;;;18.73;8.58;;;;;;;1.80;71.27;100840.80;1585236;90;21164;-65
2023/03/01 09:19:20;;;;;;;20.37;9.10;;;;;;;1.85;71.16;100841.27;1584996;90;21278;-65
2023/03/01 09:21:55;;;;;;;18.82;8.70;;;;;;;1.89;70.96;100851.31;1560602;92;21849;-64
2023/03/01 09:24:25;;;;;;;20.12;9.30;;;;;;;1.93;70.93;100843.31;1559977;92;21117;-67
2023/03/01 09:26:56;;;;;;;21.55;8.75;;;;;;;2.00;70.90;100835.56;1559590;92;21070;-67
2023/03/01 09:29:26;;;;;;;278.52;20.30;;;;;;;2.06;70.63;100835.89;1559404;92;21093;-72
2023/03/01 09:31:55;;;;;;;20.62;8.95;;;;;;;2.12;70.50;100845.31;1573266;89;21049;-64
2023/03/01 09:34:24;;;;;;;18.00;8.65;;;;;;;2.14;70.25;100850.95;1610269;89;21133;-65
2023/03/01 09:36:54;;;;;;;16.65;7.85;;;;;;;2.18;70.26;100855.60;1610192;89;21197;-66
2023/03/01 09:39:23;;;;;;;21.90;8.90;;;;;;;2.19;70.04;100850.06;1610377;89;21125;-64
2023/03/01 09:42:01;;;;;;;18.60;8.43;;;;;;;2.21;69.96;100856.19;1612535;88;21055;-64
2023/03/01 09:44:40;;;;;;;18.23;8.55;;;;;;;2.21;69.90;100848.08;1568222;91;21108;-65
2023/03/01 09:47:18;;;;;;;24.10;10.25;;;;;;;2.26;69.80;100844.13;1581910;90;21154;-67
2023/03/01 09:50:16;;;;;;;24.43;9.73;;;;;;;2.28;69.85;100844.84;1582454;89;21604;-71
2023/03/01 09:53:08;;;;;;;17.87;8.65;;;;;;;2.34;69.92;100849.22;1585894;90;21140;-64
2023/03/01 09:55:57;;;;;;;17.48;8.13;;;;;;;2.40;69.43;100854.59;1567313;90;21106;-67
2023/03/01 09:58:52;;;;;;;17.37;8.05;;;;;;;2.42;69.29;100845.84;1584300;89;21082;-66
2023/03/01 10:01:55;;;;;;;19.25;8.55;;;;;;;2.44;69.31;100850.13;1579211;89;21175;-64
2023/03/01 10:05:03;;;;;;;20.50;8.35;;;;;;;2.47;69.13;100853.06;1673542;86;21173;-73
2023/03/01 10:08:07;;;;;;;20.62;7.87;;;;;;;2.53;69.01;100859.28;1672327;84;21109;-64
2023/03/01 10:10:40;;;;;;;17.90;8.15;;;;;;;2.57;68.71;100850.41;1733405;83;21062;-65
2023/03/01 10:13:25;;;;;;;19.90;9.20;;;;;;;2.52;68.33;100844.05;1707867;83;21094;-65
2023/03/01 10:16:01;;;;;;;22.20;9.13;;;;;;;2.48;68.58;100837.20;1734470;83;21070;-65
2023/03/01 10:18:33;;;;;;;21.90;8.68;;;;;;;2.49;68.76;100845.67;1735915;81;21058;-65
2023/03/01 10:21:05;;;;;;;20.52;8.48;;;;;;;2.53;68.65;100839.00;1733991;82;21427;-67
2023/03/01 10:23:34;;;;;;;22.35;9.40;;;;;;;2.58;68.52;100838.59;1733233;82;21050;-65
2023/03/01 10:26:38;;;;;;;23.62;9.20;;;;;;;2.61;68.54;100839.20;1733801;83;21115;-66
2023/03/01 10:29:11;;;;;;;14.80;7.28;;;;;;;2.67;68.63;100840.02;1733610;81;21549;-67
2023/03/01 10:31:50;;;;;;;13.60;6.58;;;;;;;2.73;68.28;100842.17;1733409;83;21050;-67
2023/03/01 10:34:34;;;;;;;15.00;6.78;;;;;;;2.73;67.75;100835.41;1734980;83;21166;-65
2023/03/01 10:37:21;;;;;;;18.27;9.25;;;;;;;2.74;67.98;100842.53;1735121;83;21042;-63
2023/03/01 10:40:08;;;;;;;17.10;7.03;;;;;;;2.79;68.10;100832.16;1735225;83;21004;-64
2023/03/01 10:42:49;;;;;;;14.45;6.40;;;;;;;2.85;67.83;100826.19;1735132;83;20990;-64
2023/03/01 10:45:33;;;;;;;14.75;7.10;;;;;;;2.88;67.72;100829.13;1734980;83;21434;-64
2023/03/01 10:48:16;;;;;;;14.38;6.37;;;;;;;2.95;67.74;100827.58;1735282;83;21078;-66
2023/03/01 10:50:52;;;;;;;13.80;6.67;;;;;;;2.99;67.40;100830.86;1732447;81;21109;-65
2023/03/01 10:53:28;;;;;;;14.90;6.05;;;;;;;3.06;68.23;100824.75;1733388;83;21066;-66
2023/03/01 10:56:15;;;;;;;11.43;6.60;;;;;;;3.09;67.18;100825.83;1722719;83;21085;-67
2023/03/01 10:59:00;;;;;;;14.80;6.92;;;;;;;3.09;67.05;100827.18;1734232;81;21093;-65
2023/03/01 11:01:34;;;;;;;19.40;7.28;;;;;;;3.08;66.93;100828.67;1734745;82;21060;-66
2023/03/01 11:04:12;;;;;;;13.60;6.60;;;;;;;3.08;67.04;100827.32;1737051;81;21055;-66
2023/03/01 11:06:42;;;;;;;15.15;7.22;;;;;;;3.07;66.95;100821.55;1737409;82;21072;-66
2023/03/01 11:09:22;;;;;;;18.12;5.95;;;;;;;3.03;66.98;100829.59;1737235;81;21080;-67
2023/03/01 11:11:58;;;;;;;18.80;7.62;;;;;;;3.00;67.02;100823.10;1737054;81;21129;-65
2023/03/01 11:14:34;;;;;;;16.37;7.03;;;;;;;2.96;67.14;100827.08;1736961;82;20996;-66
2023/03/01 11:17:22;;;;;;;16.17;7.62;;;;;;;2.91;67.30;100823.93;1736964;81;21013;-64
2023/03/01 11:20:28;;;;;;;19.62;8.38;;;;;;;2.86;67.42;100825.20;1716350;82;21092;-66
2023/03/01 11:23:12;;;;;;;24.60;7.62;;;;;;;2.83;67.67;100817.86;1678388;84;21645;-65
2023/03/01 11:25:49;;;;;;;17.80;7.87;;;;;;;2.83;67.93;100828.18;1678465;85;21585;-64
2023/03/01 11:28:22;;;;;;;14.05;6.55;;;;;;;2.85;68.01;100829.40;1678243;84;21061;-64
2023/03/01 11:31:08;;;;;;;;;;;;;;;2.86;67.98;100822.50;1680644;85;21527;-65
2023/03/01 11:34:07;;;;;;;16.35;7.12;;;;;;;2.91;69.27;100836.11;1677995;85;20478;-65
2023/03/01 11:36:54;;;;;;;16.62;7.00;;;;;;;3.05;70.30;100827.59;1677851;85;21639;-66
2023/03/01 11:39:44;;;;;;;19.45;6.95;;;;;;;3.08;69.22;100837.65;1678362;85;21073;-66
2023/03/01 11:42:21;;;;;;;16.02;6.72;;;;;;;3.03;68.59;100841.77;1732684;82;21088;-69
2023/03/01 11:44:54;;;;;;;17.32;6.90;;;;;;;2.94;68.16;100838.54;1737002;81;21052;-68
2023/03/01 11:47:49;;;;;;;18.85;7.10;;;;;;;2.84;68.35;100838.02;1736810;81;20984;-67
2023/03/01 11:50:35;;;;;;;16.10;6.30;;;;;;;2.80;68.52;100831.16;1736563;81;21052;-68